Arthur, Illinois
Current Conditions -  °F | °C
As of 8:53 PM on Sunday 23 Nov 2014 (Local Time) from KMTO Reporting Station
Light Rain Light Rain  
Wind Chill: 52°   Ceiling: 1300
Heat Index: 52°   Visibility: 10mi
Dew Point: 51°   Wind: 6mph
Humidity: 97%   Direction: 190°S
Pressure: 29.2"   Gusts: NA
Location:  39.71°N, 88.47°W
Report Text: KMTO 240253Z AUTO 19005KT 10SM -RA FEW002 SCT006 OVC013 11/11 A2920 RMK AO2 SLP888 P0003 60014 T01110106 56022
Loading
Personal Weather Stations






























Interactive Weather Map New forecast layout! Learn more

10-Day Weather Forecast

Advertisements
Track Severe Weather on mobile